Time;durP1;ratioP1;P1;durP2;ratioP2;P2;SDS_P1;SDS_P2;PMS_P1;PMS_P2;Temp;Humidity;BMP_temperature;BMP_pressure;BME280_temperature;BME280_humidity;BME280_pressure;Samples;Min_cycle;Max_cycle;Signal;HPM_P1;HPM_P2
2023/08/15 00:00:53;;;;;;;5.40;1.60;;;;;;;;;;4978144;28;20065;-61
2023/08/15 00:03:19;;;;;;;5.43;1.40;;;;;;;;;;4978842;28;20069;-61
2023/08/15 00:05:46;;;;;;;4.75;1.58;;;;;;;;;;4977235;28;20603;-61
2023/08/15 00:08:13;;;;;;;3.60;1.40;;;;;;;;;;4977656;28;20043;-62
2023/08/15 00:10:39;;;;;;;5.25;1.73;;;;;;;;;;4975400;28;20031;-61
2023/08/15 00:13:06;;;;;;;3.80;1.25;;;;;;;;;;4977235;28;20043;-64
2023/08/15 00:15:32;;;;;;;3.65;1.70;;;;;;;;;;4976725;28;20046;-62
2023/08/15 00:17:59;;;;;;;3.33;1.35;;;;;;;;;;4977757;28;20117;-62
2023/08/15 00:20:26;;;;;;;5.90;1.58;;;;;;;;;;4975589;28;20056;-63
2023/08/15 00:22:52;;;;;;;3.67;1.50;;;;;;;;;;4976374;28;20052;-64
2023/08/15 00:25:19;;;;;;;5.93;1.38;;;;;;;;;;4979439;28;20558;-61
2023/08/15 00:27:46;;;;;;;6.32;1.30;;;;;;;;;;4978382;28;20045;-62
2023/08/15 00:30:13;;;;;;;3.97;1.40;;;;;;;;;;4979921;28;20712;-64
2023/08/15 00:32:39;;;;;;;4.05;1.20;;;;;;;;;;4978707;28;20038;-62
2023/08/15 00:35:06;;;;;;;6.25;1.70;;;;;;;;;;4985178;28;20054;-63
2023/08/15 00:37:33;;;;;;;7.60;1.52;;;;;;;;;;4974258;28;20038;-63
2023/08/15 00:40:00;;;;;;;6.80;1.42;;;;;;;;;;4975718;28;20062;-63
2023/08/15 00:42:27;;;;;;;6.57;1.60;;;;;;;;;;4974055;28;20165;-63
2023/08/15 00:44:54;;;;;;;6.07;2.10;;;;;;;;;;4974620;28;20075;-63
2023/08/15 00:47:21;;;;;;;6.97;1.30;;;;;;;;;;4977953;28;20034;-63
2023/08/15 00:49:48;;;;;;;3.95;1.30;;;;;;;;;;4976906;28;20046;-64
2023/08/15 00:52:16;;;;;;;4.38;1.88;;;;;;;;;;4976168;28;20042;-64
2023/08/15 00:54:43;;;;;;;4.32;1.70;;;;;;;;;;4990746;28;20054;-63
2023/08/15 00:57:10;;;;;;;3.72;1.58;;;;;;;;;;4970653;28;20131;-63
2023/08/15 00:59:37;;;;;;;6.60;2.33;;;;;;;;;;4975933;28;20491;-61
2023/08/15 01:02:04;;;;;;;4.97;1.50;;;;;;;;;;4975284;28;20093;-64
2023/08/15 01:04:31;;;;;;;5.90;1.38;;;;;;;;;;4973171;28;20042;-65
2023/08/15 01:06:58;;;;;;;3.53;1.40;;;;;;;;;;4990153;28;20403;-64
2023/08/15 01:09:25;;;;;;;7.65;1.50;;;;;;;;;;4991044;28;20045;-64
2023/08/15 01:12:06;;;;;;;4.70;1.90;;;;;;;;;;4976695;28;20050;-64
2023/08/15 01:14:44;;;;;;;6.38;1.38;;;;;;;;;;4975659;28;20048;-61
2023/08/15 01:17:13;;;;;;;9.35;1.92;;;;;;;;;;4975929;28;20447;-64
2023/08/15 01:19:42;;;;;;;6.03;1.75;;;;;;;;;;4974992;28;20046;-63
2023/08/15 01:22:17;;;;;;;8.48;1.80;;;;;;;;;;4976468;28;21031;-63
2023/08/15 01:24:46;;;;;;;7.10;1.90;;;;;;;;;;4974925;28;20058;-64
2023/08/15 01:27:13;;;;;;;7.20;1.83;;;;;;;;;;4976050;28;20073;-62
2023/08/15 01:29:40;;;;;;;7.07;1.85;;;;;;;;;;4988977;28;20050;-64
2023/08/15 01:32:12;;;;;;;6.68;2.35;;;;;;;;;;4975269;28;20042;-62
2023/08/15 01:34:43;;;;;;;6.03;1.90;;;;;;;;;;4974835;28;20050;-63
2023/08/15 01:37:13;;;;;;;4.72;1.50;;;;;;;;;;4975425;28;20066;-63
2023/08/15 01:39:41;;;;;;;5.20;1.90;;;;;;;;;;4968391;28;20146;-64
2023/08/15 01:42:09;;;;;;;11.00;2.15;;;;;;;;;;4963955;28;20042;-62
2023/08/15 01:44:36;;;;;;;4.43;2.05;;;;;;;;;;4965486;28;20050;-62
2023/08/15 01:47:03;;;;;;;8.40;2.05;;;;;;;;;;4967008;28;20085;-63
2023/08/15 01:49:29;;;;;;;6.85;2.30;;;;;;;;;;4966092;28;20132;-63
2023/08/15 01:51:57;;;;;;;8.18;2.50;;;;;;;;;;4966934;28;20038;-63
2023/08/15 01:54:23;;;;;;;5.25;2.25;;;;;;;;;;4967157;28;20042;-64
2023/08/15 01:56:50;;;;;;;7.63;3.25;;;;;;;;;;4966724;28;20077;-61
2023/08/15 01:59:16;;;;;;;9.40;3.03;;;;;;;;;;4966475;28;20039;-63
2023/08/15 02:01:43;;;;;;;7.57;3.40;;;;;;;;;;4965705;28;20093;-64
2023/08/15 02:04:10;;;;;;;9.63;4.70;;;;;;;;;;4969026;28;20050;-62
2023/08/15 02:06:36;;;;;;;15.20;5.90;;;;;;;;;;4969741;28;20038;-63
2023/08/15 02:09:03;;;;;;;20.38;8.23;;;;;;;;;;4971257;28;20768;-66
2023/08/15 02:11:29;;;;;;;14.25;8.10;;;;;;;;;;4966789;28;20567;-63
2023/08/15 02:13:56;;;;;;;16.17;8.55;;;;;;;;;;4967277;28;20066;-62
2023/08/15 02:16:23;;;;;;;21.27;9.73;;;;;;;;;;4981782;28;20039;-64
2023/08/15 02:18:49;;;;;;;20.08;9.82;;;;;;;;;;4972276;28;20061;-64
2023/08/15 02:21:16;;;;;;;19.52;9.98;;;;;;;;;;4971935;28;20818;-62
2023/08/15 02:23:44;;;;;;;23.25;11.65;;;;;;;;;;4988095;28;20116;-65
2023/08/15 02:26:11;;;;;;;17.33;10.93;;;;;;;;;;4973093;28;20057;-64
2023/08/15 02:28:37;;;;;;;20.38;12.77;;;;;;;;;;4971253;28;20042;-63
2023/08/15 02:31:05;;;;;;;18.90;11.80;;;;;;;;;;4970974;28;20507;-63
2023/08/15 02:33:34;;;;;;;24.58;12.73;;;;;;;;;;4971315;28;20054;-65
2023/08/15 02:36:07;;;;;;;28.05;13.40;;;;;;;;;;4971390;28;20030;-64
2023/08/15 02:38:35;;;;;;;29.55;13.02;;;;;;;;;;4970708;28;20038;-62
2023/08/15 02:41:01;;;;;;;24.67;12.90;;;;;;;;;;4972231;28;20031;-63
2023/08/15 02:43:28;;;;;;;25.75;14.30;;;;;;;;;;4986341;28;20039;-63
2023/08/15 02:45:54;;;;;;;24.80;14.65;;;;;;;;;;4971040;28;20061;-62
2023/08/15 02:48:21;;;;;;;25.30;14.95;;;;;;;;;;4971343;28;20045;-63
2023/08/15 02:50:48;;;;;;;27.35;15.98;;;;;;;;;;4970475;28;20160;-63
2023/08/15 02:53:14;;;;;;;27.15;15.82;;;;;;;;;;4969449;28;20045;-63
2023/08/15 02:55:41;;;;;;;28.50;16.67;;;;;;;;;;4970855;28;20579;-64
2023/08/15 02:58:08;;;;;;;29.02;16.38;;;;;;;;;;4975868;28;20039;-63
2023/08/15 03:00:38;;;;;;;28.10;16.38;;;;;;;;;;5000520;28;20030;-64
2023/08/15 03:03:04;;;;;;;30.27;16.83;;;;;;;;;;5001631;28;20172;-63
2023/08/15 03:05:31;;;;;;;30.48;17.60;;;;;;;;;;4996793;28;20054;-64
2023/08/15 03:07:58;;;;;;;30.63;16.70;;;;;;;;;;5014771;28;20069;-65
2023/08/15 03:10:25;;;;;;;28.33;17.42;;;;;;;;;;5001101;28;20038;-65
2023/08/15 03:12:52;;;;;;;29.25;15.85;;;;;;;;;;5000102;28;20221;-63
2023/08/15 03:15:18;;;;;;;26.48;16.77;;;;;;;;;;5000433;28;20110;-65
2023/08/15 03:17:45;;;;;;;29.25;17.45;;;;;;;;;;4999290;28;20042;-64
2023/08/15 03:20:12;;;;;;;28.77;17.17;;;;;;;;;;4999657;28;20035;-64
2023/08/15 03:22:38;;;;;;;29.10;17.55;;;;;;;;;;5001924;28;20038;-64
2023/08/15 03:25:05;;;;;;;31.17;16.88;;;;;;;;;;5001367;28;20041;-64
2023/08/15 03:27:32;;;;;;;25.88;15.75;;;;;;;;;;4998618;28;20145;-64
2023/08/15 03:29:58;;;;;;;31.08;17.08;;;;;;;;;;5000847;28;20092;-65
2023/08/15 03:32:25;;;;;;;28.15;16.42;;;;;;;;;;4999497;28;20045;-63
2023/08/15 03:34:52;;;;;;;32.00;16.60;;;;;;;;;;5001629;28;20053;-64
2023/08/15 03:37:18;;;;;;;29.65;16.33;;;;;;;;;;4998288;28;20051;-66
2023/08/15 03:39:45;;;;;;;29.67;15.65;;;;;;;;;;4987051;28;20046;-62
2023/08/15 03:42:12;;;;;;;28.80;15.57;;;;;;;;;;4979747;28;20125;-64
2023/08/15 03:44:38;;;;;;;29.42;15.27;;;;;;;;;;4982332;28;20051;-64
2023/08/15 03:47:05;;;;;;;29.60;15.80;;;;;;;;;;4992333;28;20027;-64
2023/08/15 03:49:32;;;;;;;24.95;14.30;;;;;;;;;;4992457;28;20047;-62
2023/08/15 03:51:58;;;;;;;22.58;14.25;;;;;;;;;;4992065;28;20054;-64
2023/08/15 03:54:25;;;;;;;27.25;14.20;;;;;;;;;;4996808;28;20046;-65
2023/08/15 03:56:52;;;;;;;23.10;14.13;;;;;;;;;;4997114;28;20073;-64
2023/08/15 03:59:18;;;;;;;28.30;13.60;;;;;;;;;;4998747;28;20070;-64
2023/08/15 04:01:45;;;;;;;22.40;12.40;;;;;;;;;;4997172;28;20042;-64
2023/08/15 04:04:11;;;;;;;21.58;12.38;;;;;;;;;;4995651;28;20046;-65
2023/08/15 04:06:38;;;;;;;17.40;10.30;;;;;;;;;;4995039;28;20038;-63
2023/08/15 04:09:05;;;;;;;17.30;10.23;;;;;;;;;;4994780;28;20085;-62
2023/08/15 04:11:32;;;;;;;15.13;9.10;;;;;;;;;;4991745;28;20045;-62
2023/08/15 04:13:59;;;;;;;14.70;8.20;;;;;;;;;;4992226;28;20133;-63
2023/08/15 04:16:25;;;;;;;20.75;8.57;;;;;;;;;;4990628;28;20042;-63
2023/08/15 04:18:52;;;;;;;14.48;7.15;;;;;;;;;;4979320;28;21649;-65
2023/08/15 04:21:18;;;;;;;17.33;7.53;;;;;;;;;;4973219;28;20042;-63
2023/08/15 04:23:45;;;;;;;11.77;5.80;;;;;;;;;;4973512;28;20046;-64
2023/08/15 04:26:13;;;;;;;12.10;5.93;;;;;;;;;;4970175;28;20106;-64
2023/08/15 04:28:39;;;;;;;13.63;6.60;;;;;;;;;;4966606;28;20042;-63
2023/08/15 04:31:06;;;;;;;14.45;6.45;;;;;;;;;;4961978;28;20141;-65
2023/08/15 04:33:32;;;;;;;12.90;5.80;;;;;;;;;;4976426;28;20054;-63
2023/08/15 04:35:59;;;;;;;15.65;5.55;;;;;;;;;;4968604;28;20085;-63
2023/08/15 04:38:26;;;;;;;12.05;5.63;;;;;;;;;;4968972;28;22490;-63
2023/08/15 04:40:53;;;;;;;9.70;5.25;;;;;;;;;;4965703;28;20042;-64
2023/08/15 04:43:19;;;;;;;13.13;6.00;;;;;;;;;;4968473;28;20090;-65
2023/08/15 04:45:46;;;;;;;12.23;5.43;;;;;;;;;;4965863;28;20105;-64
2023/08/15 04:48:13;;;;;;;11.35;5.43;;;;;;;;;;4966215;28;20042;-63
2023/08/15 04:50:39;;;;;;;10.40;5.25;;;;;;;;;;4965946;28;20046;-62
2023/08/15 04:53:07;;;;;;;18.15;5.65;;;;;;;;;;4966088;28;20109;-65
2023/08/15 04:55:34;;;;;;;11.57;5.47;;;;;;;;;;4966599;28;20038;-65
2023/08/15 04:58:00;;;;;;;14.20;5.57;;;;;;;;;;4966583;28;20109;-63
2023/08/15 05:00:28;;;;;;;13.63;5.00;;;;;;;;;;4965491;28;20042;-63
2023/08/15 05:02:54;;;;;;;14.70;5.25;;;;;;;;;;4967209;28;20038;-62
2023/08/15 05:05:21;;;;;;;13.57;5.20;;;;;;;;;;4965760;28;20063;-64
2023/08/15 05:07:47;;;;;;;9.15;4.65;;;;;;;;;;4965041;28;20049;-61
2023/08/15 05:10:14;;;;;;;10.15;4.72;;;;;;;;;;4964104;28;20042;-63
2023/08/15 05:12:41;;;;;;;10.25;4.45;;;;;;;;;;4965955;28;20030;-63
2023/08/15 05:15:10;;;;;;;10.57;4.70;;;;;;;;;;4973382;28;20049;-63
2023/08/15 05:17:37;;;;;;;10.40;5.22;;;;;;;;;;4975529;28;20085;-64
2023/08/15 05:20:04;;;;;;;12.98;4.60;;;;;;;;;;4974427;28;20768;-63
2023/08/15 05:22:32;;;;;;;12.82;5.00;;;;;;;;;;4974103;28;20751;-65
2023/08/15 05:24:58;;;;;;;11.73;4.63;;;;;;;;;;4974668;28;20406;-65
2023/08/15 05:27:25;;;;;;;11.65;4.90;;;;;;;;;;4973648;28;20057;-65
2023/08/15 05:29:52;;;;;;;13.80;4.55;;;;;;;;;;4972693;28;20034;-65
2023/08/15 05:32:18;;;;;;;10.75;4.45;;;;;;;;;;4975295;28;20038;-63
2023/08/15 05:34:45;;;;;;;11.85;4.53;;;;;;;;;;4975454;28;20046;-63
2023/08/15 05:37:11;;;;;;;12.00;4.70;;;;;;;;;;4989483;28;20494;-63
2023/08/15 05:39:39;;;;;;;8.43;4.22;;;;;;;;;;4974480;28;20154;-64
2023/08/15 05:42:05;;;;;;;7.65;3.90;;;;;;;;;;4974937;28;20042;-64
2023/08/15 05:44:32;;;;;;;11.02;4.78;;;;;;;;;;4973930;28;20047;-63
2023/08/15 05:47:00;;;;;;;9.93;4.15;;;;;;;;;;4975809;28;20042;-63
2023/08/15 05:49:27;;;;;;;11.55;4.63;;;;;;;;;;4974189;28;20652;-64
2023/08/15 05:51:53;;;;;;;7.97;4.30;;;;;;;;;;4976855;28;20038;-64
2023/08/15 05:54:21;;;;;;;8.52;4.22;;;;;;;;;;4979601;28;20051;-65
2023/08/15 05:56:48;;;;;;;12.35;4.78;;;;;;;;;;4977949;28;20053;-64
2023/08/15 05:59:14;;;;;;;6.93;4.00;;;;;;;;;;4979465;28;20041;-63
2023/08/15 06:01:41;;;;;;;7.97;4.63;;;;;;;;;;4976800;28;20034;-62
2023/08/15 06:04:07;;;;;;;10.07;4.50;;;;;;;;;;4978698;28;20129;-61
2023/08/15 06:06:34;;;;;;;8.45;4.20;;;;;;;;;;4977899;28;20038;-62
2023/08/15 06:09:00;;;;;;;9.98;4.65;;;;;;;;;;4978402;28;20050;-63
2023/08/15 06:11:27;;;;;;;10.30;4.90;;;;;;;;;;4975314;28;20054;-62
2023/08/15 06:13:54;;;;;;;11.60;4.85;;;;;;;;;;4979109;28;20048;-63
2023/08/15 06:16:20;;;;;;;15.50;4.57;;;;;;;;;;4978808;28;20041;-64
2023/08/15 06:18:47;;;;;;;8.23;4.47;;;;;;;;;;4978247;28;20042;-61
2023/08/15 06:21:14;;;;;;;10.13;4.65;;;;;;;;;;4978175;28;20070;-65
2023/08/15 06:23:40;;;;;;;9.23;4.00;;;;;;;;;;4992121;28;20074;-65
2023/08/15 06:26:07;;;;;;;8.88;4.57;;;;;;;;;;4977792;28;20997;-64
2023/08/15 06:28:34;;;;;;;11.00;4.93;;;;;;;;;;4978890;28;20157;-63
2023/08/15 06:31:01;;;;;;;9.73;4.70;;;;;;;;;;4978099;28;20042;-65
2023/08/15 06:33:27;;;;;;;10.35;4.63;;;;;;;;;;4977436;28;20054;-64
2023/08/15 06:35:54;;;;;;;8.75;4.30;;;;;;;;;;4977030;28;20045;-65
2023/08/15 06:38:20;;;;;;;9.30;4.97;;;;;;;;;;4979961;28;20070;-65
2023/08/15 06:40:47;;;;;;;12.60;4.97;;;;;;;;;;4976903;28;20049;-64
2023/08/15 06:43:14;;;;;;;11.15;4.97;;;;;;;;;;4977385;28;20050;-64
2023/08/15 06:45:40;;;;;;;9.30;4.57;;;;;;;;;;4992916;28;20049;-65
2023/08/15 06:48:07;;;;;;;11.40;4.97;;;;;;;;;;4977347;28;20045;-62
2023/08/15 06:50:34;;;;;;;9.30;5.00;;;;;;;;;;4976525;28;20039;-62
2023/08/15 06:53:00;;;;;;;8.93;5.15;;;;;;;;;;4977819;28;20045;-64
2023/08/15 06:55:27;;;;;;;10.32;4.55;;;;;;;;;;4978097;28;20042;-62
2023/08/15 06:57:54;;;;;;;10.82;5.00;;;;;;;;;;4978559;28;20047;-65
2023/08/15 07:00:21;;;;;;;10.32;5.35;;;;;;;;;;4977034;28;20082;-63
2023/08/15 07:02:47;;;;;;;12.07;4.93;;;;;;;;;;4975681;28;20035;-65
2023/08/15 07:05:14;;;;;;;11.32;5.22;;;;;;;;;;4974006;28;20051;-62
2023/08/15 07:07:41;;;;;;;12.18;5.35;;;;;;;;;;4975889;28;20041;-65
2023/08/15 07:10:08;;;;;;;9.52;5.35;;;;;;;;;;4975449;28;20116;-63
2023/08/15 07:12:35;;;;;;;14.95;5.43;;;;;;;;;;4976279;28;20038;-62
2023/08/15 07:15:02;;;;;;;10.52;5.13;;;;;;;;;;4977206;28;20038;-63
2023/08/15 07:17:28;;;;;;;10.13;5.55;;;;;;;;;;4975835;28;20121;-63
2023/08/15 07:19:55;;;;;;;10.77;5.22;;;;;;;;;;4976009;28;20053;-64
2023/08/15 07:22:21;;;;;;;8.52;5.03;;;;;;;;;;4976725;28;20038;-65
2023/08/15 07:24:48;;;;;;;10.90;5.20;;;;;;;;;;4976187;28;20537;-65
2023/08/15 07:27:14;;;;;;;9.68;5.35;;;;;;;;;;4976357;28;20037;-65
2023/08/15 07:29:41;;;;;;;8.95;4.80;;;;;;;;;;4989074;28;20042;-65
2023/08/15 07:32:08;;;;;;;11.43;5.20;;;;;;;;;;4976211;28;20121;-63
2023/08/15 07:34:35;;;;;;;8.82;4.88;;;;;;;;;;4976496;28;20051;-63
2023/08/15 07:37:01;;;;;;;9.50;5.28;;;;;;;;;;4976185;28;20109;-63
2023/08/15 07:39:28;;;;;;;11.10;5.10;;;;;;;;;;4975322;28;20038;-64
2023/08/15 07:41:54;;;;;;;8.82;4.95;;;;;;;;;;4977113;28;20518;-64
2023/08/15 07:44:21;;;;;;;10.45;4.80;;;;;;;;;;4976153;28;20069;-63
2023/08/15 07:46:48;;;;;;;13.15;4.90;;;;;;;;;;4975085;28;20172;-65
2023/08/15 07:49:14;;;;;;;14.73;5.07;;;;;;;;;;4976796;28;20045;-64
2023/08/15 07:51:41;;;;;;;10.05;4.97;;;;;;;;;;4975608;28;20038;-63
2023/08/15 07:54:07;;;;;;;12.30;5.43;;;;;;;;;;4976249;28;20045;-63
2023/08/15 07:56:34;;;;;;;9.35;4.95;;;;;;;;;;4975214;28;20051;-63
2023/08/15 07:59:01;;;;;;;8.63;4.75;;;;;;;;;;4976803;28;20410;-64
2023/08/15 08:01:28;;;;;;;10.30;4.55;;;;;;;;;;4990092;28;20129;-62
2023/08/15 08:03:55;;;;;;;10.63;4.38;;;;;;;;;;4976616;28;20574;-64
2023/08/15 08:06:22;;;;;;;9.65;4.15;;;;;;;;;;4976706;28;20052;-62
2023/08/15 08:08:49;;;;;;;10.02;4.60;;;;;;;;;;4976473;28;20051;-63
2023/08/15 08:11:15;;;;;;;10.43;4.45;;;;;;;;;;4977019;28;20759;-62
2023/08/15 08:13:42;;;;;;;7.82;4.28;;;;;;;;;;4974777;28;20213;-62
2023/08/15 08:16:08;;;;;;;10.23;5.07;;;;;;;;;;4975333;28;20042;-62
2023/08/15 08:18:35;;;;;;;10.52;4.85;;;;;;;;;;4976473;28;20119;-61
2023/08/15 08:21:03;;;;;;;10.30;4.13;;;;;;;;;;4975948;28;20049;-62
2023/08/15 08:23:30;;;;;;;8.93;4.65;;;;;;;;;;4974958;28;20050;-64
2023/08/15 08:25:56;;;;;;;8.88;4.45;;;;;;;;;;4976293;28;20046;-64
2023/08/15 08:28:24;;;;;;;9.68;4.18;;;;;;;;;;4975228;28;20078;-68
2023/08/15 08:30:51;;;;;;;9.68;4.72;;;;;;;;;;4974811;28;20096;-65
2023/08/15 08:33:18;;;;;;;9.75;4.80;;;;;;;;;;4976131;28;20165;-62
2023/08/15 08:35:44;;;;;;;8.10;4.28;;;;;;;;;;4975473;28;20077;-63
2023/08/15 08:38:11;;;;;;;8.13;4.93;;;;;;;;;;4975648;28;20780;-62
2023/08/15 08:40:39;;;;;;;8.20;4.57;;;;;;;;;;4974786;28;20037;-59
2023/08/15 08:43:05;;;;;;;10.65;4.55;;;;;;;;;;4975579;28;20097;-62
2023/08/15 08:45:33;;;;;;;8.13;4.13;;;;;;;;;;4974702;28;20042;-63
2023/08/15 08:48:20;;;;;;;10.80;4.50;;;;;;;;;;4995019;28;20034;-63
2023/08/15 08:50:46;;;;;;;10.50;4.88;;;;;;;;;;4993831;28;20832;-63
2023/08/15 08:53:13;;;;;;;9.35;4.57;;;;;;;;;;4993914;28;20682;-62
2023/08/15 08:55:40;;;;;;;8.48;4.82;;;;;;;;;;4994467;28;20105;-63
2023/08/15 08:58:09;;;;;;;11.15;5.13;;;;;;;;;;4994659;28;20126;-64
2023/08/15 09:00:36;;;;;;;8.45;4.25;;;;;;;;;;4993304;28;20048;-62
2023/08/15 09:03:02;;;;;;;10.50;4.47;;;;;;;;;;4977858;28;20570;-64
2023/08/15 09:05:29;;;;;;;9.25;4.63;;;;;;;;;;4992977;28;20064;-62
2023/08/15 09:07:56;;;;;;;8.77;4.78;;;;;;;;;;4993573;28;20045;-62
2023/08/15 09:10:23;;;;;;;8.52;4.95;;;;;;;;;;4993545;28;20037;-61
2023/08/15 09:12:50;;;;;;;9.48;4.45;;;;;;;;;;4993129;28;20046;-62
2023/08/15 09:15:16;;;;;;;11.35;4.78;;;;;;;;;;4993145;28;20136;-63
2023/08/15 09:17:43;;;;;;;10.50;4.90;;;;;;;;;;4993275;28;21441;-62
2023/08/15 09:20:12;;;;;;;9.98;5.32;;;;;;;;;;4984099;28;20542;-63
2023/08/15 09:22:45;;;;;;;10.98;5.45;;;;;;;;;;4983224;28;20038;-62
2023/08/15 09:25:11;;;;;;;;;;;;;;;;;;4988847;28;20058;-64
2023/08/15 09:27:38;;;;;;;11.23;4.75;;;;;;;;;;4974578;28;19922;-62
2023/08/15 09:30:09;;;;;;;13.85;5.75;;;;;;;;;;4973974;28;20046;-63
2023/08/15 09:32:36;;;;;;;8.88;4.80;;;;;;;;;;4974402;28;20039;-63
2023/08/15 09:35:03;;;;;;;12.32;5.43;;;;;;;;;;4974675;28;20058;-63
2023/08/15 09:37:31;;;;;;;8.18;4.47;;;;;;;;;;4973789;28;20061;-64
2023/08/15 09:39:58;;;;;;;12.27;5.20;;;;;;;;;;4973900;28;20567;-61
2023/08/15 09:42:25;;;;;;;10.02;5.40;;;;;;;;;;4973490;28;20031;-62
2023/08/15 09:44:52;;;;;;;10.13;4.88;;;;;;;;;;4974224;28;20042;-63
2023/08/15 09:47:19;;;;;;;9.82;4.68;;;;;;;;;;4975756;28;20150;-64
2023/08/15 09:49:45;;;;;;;10.20;5.15;;;;;;;;;;4974080;28;20576;-62
2023/08/15 09:52:12;;;;;;;12.80;5.32;;;;;;;;;;4977382;28;20043;-64
2023/08/15 09:54:40;;;;;;;10.80;5.18;;;;;;;;;;4976183;28;20042;-64
2023/08/15 09:57:07;;;;;;;11.23;5.32;;;;;;;;;;4976624;28;20545;-63
2023/08/15 09:59:36;;;;;;;14.80;5.32;;;;;;;;;;4991715;28;20680;-63
2023/08/15 10:02:05;;;;;;;13.25;5.45;;;;;;;;;;4976215;28;20042;-63
2023/08/15 10:04:32;;;;;;;10.27;5.55;;;;;;;;;;4974732;28;20129;-63
2023/08/15 10:06:59;;;;;;;9.68;5.07;;;;;;;;;;4974685;28;20038;-61
2023/08/15 10:09:28;;;;;;;10.35;5.18;;;;;;;;;;4979270;28;20046;-63
2023/08/15 10:11:55;;;;;;;10.25;5.40;;;;;;;;;;4974737;28;20046;-63
2023/08/15 10:14:22;;;;;;;13.48;5.00;;;;;;;;;;4976581;28;20064;-64
2023/08/15 10:16:49;;;;;;;10.52;5.07;;;;;;;;;;4976329;28;20039;-63
2023/08/15 10:19:17;;;;;;;10.45;5.65;;;;;;;;;;4991961;28;20081;-61
2023/08/15 10:21:47;;;;;;;12.05;5.30;;;;;;;;;;4990710;28;20053;-62
2023/08/15 10:24:14;;;;;;;9.10;4.72;;;;;;;;;;4977514;28;20043;-60
2023/08/15 10:26:41;;;;;;;8.93;4.63;;;;;;;;;;4977289;28;20101;-63
2023/08/15 10:29:08;;;;;;;13.32;5.43;;;;;;;;;;4971212;28;20031;-62
2023/08/15 10:31:38;;;;;;;10.15;5.28;;;;;;;;;;4973618;28;20043;-61
2023/08/15 10:34:05;;;;;;;11.60;5.35;;;;;;;;;;4972442;28;20063;-60
2023/08/15 10:36:31;;;;;;;12.23;5.55;;;;;;;;;;4974355;28;20399;-63
2023/08/15 10:39:04;;;;;;;14.13;5.93;;;;;;;;;;4977827;28;20042;-62
2023/08/15 10:41:32;;;;;;;8.73;5.05;;;;;;;;;;4978220;28;20406;-66
2023/08/15 10:44:03;;;;;;;11.55;5.22;;;;;;;;;;4993892;28;20128;-65
2023/08/15 10:46:30;;;;;;;11.77;5.45;;;;;;;;;;4976264;28;20112;-62
2023/08/15 10:49:01;;;;;;;13.52;6.00;;;;;;;;;;4977308;28;20197;-63
2023/08/15 10:51:32;;;;;;;13.55;6.05;;;;;;;;;;4977002;28;20061;-63
2023/08/15 10:54:00;;;;;;;12.38;5.57;;;;;;;;;;4994255;28;20145;-64
2023/08/15 10:56:28;;;;;;;10.38;5.22;;;;;;;;;;4976825;28;20038;-62
2023/08/15 10:58:55;;;;;;;23.27;5.75;;;;;;;;;;4977953;28;20051;-64
2023/08/15 11:01:22;;;;;;;10.40;5.18;;;;;;;;;;4972399;28;20041;-62
2023/08/15 11:03:50;;;;;;;11.18;5.75;;;;;;;;;;4976248;28;20077;-62
2023/08/15 11:06:17;;;;;;;10.85;5.68;;;;;;;;;;4978004;28;20050;-64
2023/08/15 11:08:47;;;;;;;10.73;6.05;;;;;;;;;;4975443;28;20503;-62
2023/08/15 11:11:14;;;;;;;17.23;5.78;;;;;;;;;;4993945;28;20038;-64
2023/08/15 11:13:41;;;;;;;12.65;5.50;;;;;;;;;;4974895;28;20066;-63
2023/08/15 11:16:08;;;;;;;12.68;5.55;;;;;;;;;;4978618;28;20049;-64
2023/08/15 11:18:35;;;;;;;15.05;6.25;;;;;;;;;;4978015;28;20454;-64
2023/08/15 11:21:02;;;;;;;12.70;6.18;;;;;;;;;;4983735;28;20515;-62
2023/08/15 11:23:31;;;;;;;11.60;5.78;;;;;;;;;;4976264;28;20062;-62
2023/08/15 11:26:10;;;;;;;11.35;5.80;;;;;;;;;;4977355;28;20038;-61
2023/08/15 11:28:37;;;;;;;14.65;5.95;;;;;;;;;;4979141;28;20041;-61
2023/08/15 11:31:13;;;;;;;11.82;5.78;;;;;;;;;;4976372;28;20050;-61
2023/08/15 11:33:40;;;;;;;12.43;5.75;;;;;;;;;;4980989;28;20217;-64
2023/08/15 11:36:08;;;;;;;9.85;4.95;;;;;;;;;;4994137;28;20049;-61
2023/08/15 11:38:36;;;;;;;12.27;5.55;;;;;;;;;;4987736;28;20057;-62
2023/08/15 11:41:04;;;;;;;13.48;6.22;;;;;;;;;;4979327;28;20058;-63
2023/08/15 11:43:31;;;;;;;12.55;6.72;;;;;;;;;;4977546;28;20112;-62
2023/08/15 11:46:01;;;;;;;10.05;5.22;;;;;;;;;;4978983;28;21065;-64
2023/08/15 11:48:28;;;;;;;13.45;5.60;;;;;;;;;;4976174;28;20038;-62
2023/08/15 11:50:54;;;;;;;13.43;5.88;;;;;;;;;;4976223;28;20038;-60
2023/08/15 11:53:21;;;;;;;10.98;5.90;;;;;;;;;;4976527;28;20124;-63
2023/08/15 11:55:48;;;;;;;9.77;5.53;;;;;;;;;;4976123;28;20096;-62
2023/08/15 11:58:27;;;;;;;13.77;5.68;;;;;;;;;;4977184;28;20031;-60
2023/08/15 12:00:58;;;;;;;13.15;6.20;;;;;;;;;;4975453;28;20043;-63
2023/08/15 12:03:26;;;;;;;14.82;7.45;;;;;;;;;;4976993;28;20038;-64
2023/08/15 12:05:56;;;;;;;17.05;7.78;;;;;;;;;;4977271;28;20530;-61
2023/08/15 12:08:26;;;;;;;12.90;7.72;;;;;;;;;;4975890;28;20074;-68
2023/08/15 12:10:57;;;;;;;14.65;7.22;;;;;;;;;;4975067;28;20057;-62
2023/08/15 12:13:32;;;;;;;11.95;6.57;;;;;;;;;;4992077;28;20050;-63
2023/08/15 12:16:00;;;;;;;14.43;6.00;;;;;;;;;;4976523;28;20097;-63
2023/08/15 12:18:27;;;;;;;14.85;6.13;;;;;;;;;;4974797;28;20062;-62
2023/08/15 12:20:54;;;;;;;13.05;6.32;;;;;;;;;;4976206;28;20073;-64
2023/08/15 12:23:21;;;;;;;11.75;6.20;;;;;;;;;;4976452;28;20038;-67
2023/08/15 12:25:48;;;;;;;19.77;6.90;;;;;;;;;;4974955;28;20046;-66
2023/08/15 12:28:15;;;;;;;19.80;6.60;;;;;;;;;;4976079;28;20073;-61
2023/08/15 12:30:42;;;;;;;16.05;6.78;;;;;;;;;;4975807;28;20103;-66
2023/08/15 12:33:08;;;;;;;15.73;6.57;;;;;;;;;;4975585;28;20659;-63
2023/08/15 12:35:36;;;;;;;18.27;7.45;;;;;;;;;;4976519;28;20045;-62
2023/08/15 12:38:02;;;;;;;14.73;6.30;;;;;;;;;;4977862;28;20181;-63
2023/08/15 12:40:29;;;;;;;14.52;6.30;;;;;;;;;;4994461;28;20034;-62
2023/08/15 12:42:56;;;;;;;12.82;6.00;;;;;;;;;;4977995;28;20061;-61
2023/08/15 12:45:22;;;;;;;14.82;6.40;;;;;;;;;;4979069;28;20054;-62
2023/08/15 12:47:49;;;;;;;18.80;6.85;;;;;;;;;;5004634;28;20034;-63
2023/08/15 12:50:15;;;;;;;17.63;7.18;;;;;;;;;;4999103;28;20390;-62
2023/08/15 12:52:42;;;;;;;14.73;6.95;;;;;;;;;;4997595;28;20041;-64
2023/08/15 12:55:09;;;;;;;25.27;7.40;;;;;;;;;;4997018;28;20653;-63
2023/08/15 12:57:36;;;;;;;18.92;6.95;;;;;;;;;;4997378;28;20126;-65
2023/08/15 13:00:03;;;;;;;16.63;7.35;;;;;;;;;;5010338;28;20068;-64
2023/08/15 13:02:30;;;;;;;13.32;6.85;;;;;;;;;;4996397;28;20604;-62
2023/08/15 13:04:56;;;;;;;17.80;6.68;;;;;;;;;;4996086;28;20054;-61
2023/08/15 13:07:23;;;;;;;13.00;6.10;;;;;;;;;;5011029;28;20034;-63
2023/08/15 13:09:50;;;;;;;19.63;7.45;;;;;;;;;;4994912;28;20049;-63
2023/08/15 13:12:16;;;;;;;20.40;7.63;;;;;;;;;;4995569;28;20105;-62
2023/08/15 13:14:46;;;;;;;16.90;6.65;;;;;;;;;;4995293;28;20580;-62
2023/08/15 13:17:12;;;;;;;17.60;6.93;;;;;;;;;;4995992;28;20046;-62
2023/08/15 13:19:39;;;;;;;15.55;7.30;;;;;;;;;;4993250;28;20046;-62
2023/08/15 13:22:06;;;;;;;18.58;7.60;;;;;;;;;;4996235;28;20126;-62
2023/08/15 13:24:32;;;;;;;14.30;7.43;;;;;;;;;;4995801;28;20062;-63
2023/08/15 13:26:59;;;;;;;23.30;7.47;;;;;;;;;;5008861;28;20085;-62
2023/08/15 13:29:25;;;;;;;13.40;7.22;;;;;;;;;;4993179;28;20123;-63
2023/08/15 13:31:52;;;;;;;13.88;7.07;;;;;;;;;;4993414;28;20048;-63
2023/08/15 13:34:21;;;;;;;15.05;6.65;;;;;;;;;;4993478;28;20093;-62
2023/08/15 13:36:48;;;;;;;17.85;6.80;;;;;;;;;;4993016;28;20168;-62
2023/08/15 13:39:15;;;;;;;14.38;6.68;;;;;;;;;;4994317;28;20101;-61
2023/08/15 13:41:41;;;;;;;15.57;7.43;;;;;;;;;;4993581;28;20042;-63
2023/08/15 13:44:08;;;;;;;18.40;7.97;;;;;;;;;;4992585;28;20391;-65
2023/08/15 13:46:34;;;;;;;22.25;8.55;;;;;;;;;;4993254;28;20042;-65
2023/08/15 13:49:02;;;;;;;15.43;7.60;;;;;;;;;;4992314;28;20038;-67
2023/08/15 13:51:30;;;;;;;17.38;8.23;;;;;;;;;;4992368;28;20041;-64
2023/08/15 13:53:57;;;;;;;15.55;7.57;;;;;;;;;;5008715;28;20042;-64
2023/08/15 13:56:27;;;;;;;17.27;7.70;;;;;;;;;;4993775;28;20125;-64
2023/08/15 13:58:54;;;;;;;14.30;7.25;;;;;;;;;;4994254;28;20125;-62
2023/08/15 14:01:20;;;;;;;14.40;7.32;;;;;;;;;;4994754;28;20038;-60
2023/08/15 14:03:47;;;;;;;15.57;7.40;;;;;;;;;;4994853;28;20049;-63
2023/08/15 14:06:14;;;;;;;14.05;7.18;;;;;;;;;;4994854;28;20686;-62
2023/08/15 14:08:40;;;;;;;15.45;7.72;;;;;;;;;;4992510;28;20540;-63
2023/08/15 14:11:07;;;;;;;19.15;7.43;;;;;;;;;;4998672;28;20084;-63
2023/08/15 14:13:33;;;;;;;17.10;8.00;;;;;;;;;;4997379;28;20405;-62
2023/08/15 14:16:00;;;;;;;15.15;8.30;;;;;;;;;;4997504;28;20050;-64
2023/08/15 14:18:27;;;;;;;15.95;7.53;;;;;;;;;;4997132;28;20057;-62
2023/08/15 14:20:53;;;;;;;13.80;7.55;;;;;;;;;;4997292;28;20049;-64
2023/08/15 14:23:20;;;;;;;15.13;7.50;;;;;;;;;;4997952;28;20080;-63
2023/08/15 14:25:46;;;;;;;14.40;7.57;;;;;;;;;;4996805;28;20096;-63
2023/08/15 14:28:13;;;;;;;15.75;6.97;;;;;;;;;;4995663;28;20088;-63
2023/08/15 14:30:40;;;;;;;15.00;6.80;;;;;;;;;;4996089;28;20038;-62
2023/08/15 14:33:07;;;;;;;18.60;6.85;;;;;;;;;;4996335;28;20153;-64